Weather History for Marfa, TX

Change the Weather History Date:

Thursday, March 14, 2013

  Actual Average Record
Temperature  
Mean Temperature 52 °F -  
Max Temperature 75 °F 64 °F 80 °F (2007)
Min Temperature 30 °F 34 °F 24 °F (2006)
Degree Days  
Heating Degree Days 12    
Growing Degree Days 2 (Base 50)    
Moisture  
Dew Point 16 °F    
Average Humidity 27    
Maximum Humidity 55    
Minimum Humidity 11    
Precipitation  
Precipitation 0.00 in - - ()
Sea Level Pressure  
Sea Level Pressure 30.32 in    
Wind  
Wind Speed 6 mph (SW)    
Max Wind Speed 9 mph    
Max Gust Speed -    
Visibility 10 miles    
Events      
Averages and records for this station are not official NWS values.
T = Trace of Precipitation, MM = Missing Value Source: NWS Daily Summary

Daily Weather History Graph

Daily Weather History Graph

Search for Another Location

Airport:

Trip Planner

Search our weather history database for the weather conditions in past years. The results will help you decide how hot, cold, wet, or windy it might be!

Date:

Astronomy

Mar. 14, 2013 Rise Set
Actual Time 8:06 AM CDT 8:03 PM CDT
Civil Twilight 7:42 AM CDT 8:27 PM CDT
Nautical Twilight 7:15 AM CDT 8:55 PM CDT
Astronomical Twilight 6:47 AM CDT 9:23 PM CDT
Moon 9:37 AM CDT (3/14) 11:05 PM CDT (3/14)
Length of Visible Light 12h 45m
Length of Day
11h 57m
Waxing Crescent, 9% of the Moon is Illuminated
Mar 14
Waxing Crescent
Mar 19
First Quarter
Mar 27
Full
Apr 2
Last Quarter
Apr 10
New

Hourly Weather History & Observations

Time (CDT) Temp. Windchill Dew Point Humidity Pressure Visibility Wind Dir Wind Speed Gust Speed Precip Events Conditions
12:15 AM 42.8 °F 39.3 °F 12.2 °F 29% 30.34 in 10.0 mi WNW 5.8 mph - N/A   Clear
12:35 AM 39.2 °F 33.6 °F 10.4 °F 31% 30.34 in 10.0 mi WNW 8.1 mph - N/A   Clear
1:15 AM 37.4 °F 30.8 °F 10.4 °F 33% 30.33 in 10.0 mi NW 9.2 mph - N/A   Clear
1:35 AM 35.6 °F 28.6 °F 10.4 °F 35% 30.33 in 10.0 mi NW 9.2 mph - N/A   Clear
1:55 AM 37.4 °F 32.8 °F 10.4 °F 33% 30.33 in 10.0 mi WNW 5.8 mph - N/A   Clear
2:15 AM 35.6 °F 32.8 °F 10.4 °F 35% 30.34 in 10.0 mi West 3.5 mph - N/A   Clear
2:35 AM 33.8 °F 30.8 °F 8.6 °F 35% 30.33 in 10.0 mi WNW 3.5 mph - N/A   Clear
2:55 AM 33.8 °F 30.8 °F 10.4 °F 38% 30.33 in 10.0 mi NNW 3.5 mph - N/A   Clear
3:15 AM 33.8 °F 29.6 °F 10.4 °F 38% 30.32 in 10.0 mi North 4.6 mph - N/A   Clear
3:35 AM 33.8 °F 26.4 °F 10.4 °F 38% 30.32 in 10.0 mi North 9.2 mph - N/A   Clear
3:55 AM 33.8 °F 26.4 °F 12.2 °F 41% 30.32 in 10.0 mi NNW 9.2 mph - N/A   Clear
4:15 AM 35.6 °F 29.9 °F 15.8 °F 44% 30.32 in 10.0 mi North 6.9 mph - N/A   Clear
4:35 AM 33.8 °F 28.6 °F 14.0 °F 44% 30.31 in 10.0 mi North 5.8 mph - N/A   Clear
4:55 AM 32.0 °F 24.2 °F 14.0 °F 48% 30.31 in 10.0 mi North 9.2 mph - N/A   Clear
5:15 AM 30.2 °F 23.4 °F 14.0 °F 51% 30.31 in 10.0 mi North 6.9 mph - N/A   Clear
5:35 AM 30.2 °F 23.4 °F 14.0 °F 51% 30.31 in 10.0 mi North 6.9 mph - N/A   Clear
5:55 AM 32.0 °F 27.5 °F 14.0 °F 48% 30.32 in 10.0 mi North 4.6 mph - N/A   Clear
6:15 AM 30.2 °F 25.4 °F 14.0 °F 51% 30.32 in 10.0 mi North 4.6 mph - N/A   Clear
6:35 AM 32.0 °F 28.7 °F 15.8 °F 51% 30.32 in 10.0 mi North 3.5 mph - N/A   Clear
6:55 AM 30.2 °F 24.3 °F 14.0 °F 51% 30.33 in 10.0 mi NNW 5.8 mph - N/A   Clear
7:15 AM 30.2 °F 24.3 °F 15.8 °F 55% 30.33 in 10.0 mi NNW 5.8 mph - N/A   Clear
7:35 AM 33.8 °F 28.6 °F 17.6 °F 52% 30.34 in 10.0 mi North 5.8 mph - N/A   Clear
7:55 AM 33.8 °F 27.7 °F 15.8 °F 48% 30.34 in 10.0 mi North 6.9 mph - N/A   Clear
8:15 AM 33.8 °F 29.6 °F 15.8 °F 48% 30.34 in 10.0 mi North 4.6 mph - N/A   Clear
8:35 AM 33.8 °F 30.8 °F 17.6 °F 52% 30.35 in 10.0 mi NNW 3.5 mph - N/A   Clear
8:55 AM 37.4 °F - 17.6 °F 45% 30.36 in 10.0 mi Calm Calm - N/A   Clear
9:15 AM 44.6 °F - 21.2 °F 39% 30.36 in 10.0 mi Calm Calm - N/A   Clear
9:35 AM 50.0 °F - 23.0 °F 35% 30.37 in 10.0 mi NNW 3.5 mph - N/A   Clear
9:55 AM 53.6 °F - 24.8 °F 33% 30.38 in 10.0 mi Calm Calm - N/A   Clear
10:15 AM 55.4 °F - 24.8 °F 31% 30.38 in 10.0 mi South 3.5 mph - N/A   Clear
10:35 AM 57.2 °F - 24.8 °F 29% 30.39 in 10.0 mi South 6.9 mph - N/A   Clear
10:55 AM 59.0 °F - 24.8 °F 27% 30.38 in 10.0 mi South 6.9 mph - N/A   Clear
11:15 AM 60.8 °F - 24.8 °F 25% 30.39 in 10.0 mi SSE 4.6 mph - N/A   Clear
11:35 AM 62.6 °F - 24.8 °F 24% 30.38 in 10.0 mi South 6.9 mph - N/A   Clear
11:55 AM 62.6 °F - 24.8 °F 24% 30.38 in 10.0 mi South 6.9 mph - N/A   Clear
12:15 PM 64.4 °F - 24.8 °F 22% 30.38 in 10.0 mi SSW 6.9 mph - N/A   Clear
12:35 PM 66.2 °F - 23.0 °F 19% 30.38 in 10.0 mi South 4.6 mph - N/A   Clear
12:55 PM 68.0 °F - 23.0 °F 18% 30.37 in 10.0 mi SSE 3.5 mph - N/A   Clear
1:15 PM 69.8 °F - 21.2 °F 16% 30.37 in 10.0 mi South 5.8 mph - N/A   Clear
1:35 PM 71.6 °F - 19.4 °F 14% 30.36 in 10.0 mi South 8.1 mph - N/A   Clear
1:55 PM 71.6 °F - 17.6 °F 13% 30.35 in 10.0 mi SE 5.8 mph - N/A   Clear
2:15 PM 71.6 °F - 17.6 °F 13% 30.34 in 10.0 mi SE 5.8 mph - N/A   Clear
2:35 PM 71.6 °F - 17.6 °F 13% 30.33 in 10.0 mi SE 5.8 mph - N/A   Clear
2:55 PM 71.6 °F - 15.8 °F 12% 30.32 in 10.0 mi SSE 4.6 mph - N/A   Clear
3:15 PM 71.6 °F - 15.8 °F 12% 30.31 in 10.0 mi North 5.8 mph - N/A   Clear
3:35 PM 73.4 °F - 15.8 °F 11% 30.30 in 10.0 mi South 6.9 mph - N/A   Clear
3:55 PM 73.4 °F - 17.6 °F 12% 30.28 in 10.0 mi ESE 5.8 mph - N/A   Clear
4:15 PM 73.4 °F - 15.8 °F 11% 30.28 in 10.0 mi Calm Calm - N/A   Clear
4:35 PM 73.4 °F - 15.8 °F 11% 30.28 in 10.0 mi SSE 4.6 mph - N/A   Clear
4:55 PM 73.4 °F - 15.8 °F 11% 30.27 in 10.0 mi ESE 6.9 mph - N/A   Clear
5:15 PM 73.4 °F - 15.8 °F 11% 30.27 in 10.0 mi SSE 5.8 mph - N/A   Clear
5:35 PM 75.2 °F - 17.6 °F 11% 30.26 in 10.0 mi SSW 8.1 mph - N/A   Clear
5:55 PM 73.4 °F - 15.8 °F 11% 30.26 in 10.0 mi Calm Calm - N/A   Clear
6:15 PM 73.4 °F - 15.8 °F 11% 30.25 in 10.0 mi SSE 6.9 mph - N/A   Clear
6:35 PM 73.4 °F - 15.8 °F 11% 30.25 in 10.0 mi South 3.5 mph - N/A   Clear
6:55 PM 73.4 °F - 15.8 °F 11% 30.25 in 10.0 mi SSW 6.9 mph - N/A   Clear
7:15 PM 73.4 °F - 15.8 °F 11% 30.26 in 10.0 mi SSW 8.1 mph - N/A   Clear
7:35 PM 71.6 °F - 14.0 °F 11% 30.25 in 10.0 mi South 5.8 mph - N/A   Clear
7:55 PM 69.8 °F - 12.2 °F 11% 30.26 in 10.0 mi South 8.1 mph - N/A   Clear
8:15 PM 64.4 °F - 12.2 °F 13% 30.26 in 10.0 mi SSW 9.2 mph - N/A   Clear
8:35 PM 62.6 °F - 15.8 °F 16% 30.26 in 10.0 mi SSW 9.2 mph - N/A   Clear
8:55 PM 60.8 °F - 12.2 °F 15% 30.26 in 10.0 mi South 6.9 mph - N/A   Clear
9:15 PM 59.0 °F - 12.2 °F 16% 30.26 in 10.0 mi SSW 8.1 mph - N/A   Clear
9:35 PM 55.4 °F - 12.2 °F 18% 30.28 in 10.0 mi SE 8.1 mph - N/A   Clear
9:55 PM 55.4 °F - 14.0 °F 20% 30.28 in 10.0 mi SE 8.1 mph - N/A   Clear
10:15 PM 53.6 °F - 14.0 °F 21% 30.28 in 10.0 mi SE 6.9 mph - N/A   Clear
10:35 PM 51.8 °F - 14.0 °F 22% 30.29 in 10.0 mi Calm Calm - N/A   Clear
10:55 PM 46.4 °F - 12.2 °F 25% 30.29 in 10.0 mi Calm Calm - N/A   Clear
11:15 PM 46.4 °F 45.2 °F 12.2 °F 25% 30.29 in 10.0 mi NW 3.5 mph - N/A   Clear
11:35 PM 44.6 °F - 12.2 °F 27% 30.29 in 10.0 mi Calm Calm - N/A   Clear
11:55 PM 44.6 °F 43.1 °F 12.2 °F 27% 30.29 in 10.0 mi WSW 3.5 mph - N/A   Clear